createdAt,value
2022-12-12T00:00:55.217Z,96734.25
2022-12-12T00:02:01.318Z,96729.97
2022-12-12T00:03:08.306Z,96720.16
2022-12-12T00:04:15.944Z,96718.13
2022-12-12T00:05:21.294Z,96729.75
2022-12-12T00:06:28.730Z,96726.44
2022-12-12T00:07:32.038Z,96724.66
2022-12-12T00:08:38.128Z,96717.69
2022-12-12T00:09:44.895Z,96720.41
2022-12-12T00:10:48.366Z,96718.75
2022-12-12T00:11:54.323Z,96714.78
2022-12-12T00:12:57.703Z,96723.69
2022-12-12T00:14:06.938Z,96720.66
2022-12-12T00:15:11.961Z,96717.13
2022-12-12T00:16:18.822Z,96715.13
2022-12-12T00:17:22.225Z,96716.53
2022-12-12T00:18:28.337Z,96721.50
2022-12-12T00:19:31.844Z,96718.91
2022-12-12T00:20:38.553Z,96731.06
2022-12-12T00:21:41.974Z,96731.06
2022-12-12T00:22:47.892Z,96726.34
2022-12-12T00:23:52.723Z,96727.56
2022-12-12T00:24:58.704Z,96728.97
2022-12-12T00:26:08.828Z,96704.34
2022-12-12T00:27:14.772Z,96722.03
2022-12-12T00:28:18.277Z,96717.34
2022-12-12T00:29:26.783Z,96727.50
2022-12-12T00:30:30.104Z,96717.34
2022-12-12T00:31:37.170Z,96729.84
2022-12-12T00:32:40.622Z,96725.47
2022-12-12T00:33:50.359Z,96725.19
2022-12-12T00:34:53.870Z,96729.28
2022-12-12T00:35:59.801Z,96734.78
2022-12-12T00:37:06.637Z,96729.31
2022-12-12T00:38:10.250Z,96736.31
2022-12-12T00:39:18.450Z,96738.47
2022-12-12T00:40:22.680Z,96733.25
2022-12-12T00:41:29.705Z,96727.34
2022-12-12T00:42:36.613Z,96733.41
2022-12-12T00:43:40.005Z,96721.72
2022-12-12T00:44:48.572Z,96726.94
2022-12-12T00:45:52.531Z,96734.75
2022-12-12T00:46:58.479Z,96728.09
2022-12-12T00:48:02.659Z,96716.53
2022-12-12T00:49:09.430Z,96730.00
2022-12-12T00:50:13.950Z,96713.22
2022-12-12T00:51:23.373Z,96726.47
2022-12-12T00:52:29.309Z,96734.28
2022-12-12T00:53:33.417Z,96724.94
2022-12-12T00:54:39.317Z,96728.22
2022-12-12T00:55:42.955Z,96732.50
2022-12-12T00:56:48.923Z,96719.84
2022-12-12T00:57:52.743Z,96729.78
2022-12-12T00:58:59.518Z,96728.63
2022-12-12T01:00:09.271Z,96723.88
2022-12-12T01:01:17.220Z,96722.00
2022-12-12T01:02:28.144Z,96725.31
2022-12-12T01:03:33.970Z,96722.94
2022-12-12T01:04:40.756Z,96723.78
2022-12-12T01:05:44.265Z,96726.38
2022-12-12T01:06:50.371Z,96724.72
2022-12-12T01:07:54.410Z,96720.34
2022-12-12T01:09:00.626Z,96724.72
2022-12-12T01:10:07.434Z,96727.44
2022-12-12T01:11:16.944Z,96723.78
2022-12-12T01:12:20.250Z,96720.16
2022-12-12T01:13:27.220Z,96725.34
2022-12-12T01:14:33.303Z,96719.44
2022-12-12T01:15:40.058Z,96722.50
2022-12-12T01:16:46.015Z,96716.69
2022-12-12T01:17:49.440Z,96724.94
2022-12-12T01:18:55.966Z,96716.78
2022-12-12T01:19:59.260Z,96724.84
2022-12-12T01:21:07.175Z,96726.03
2022-12-12T01:22:10.659Z,96720.00
2022-12-12T01:23:17.858Z,96716.69
2022-12-12T01:24:21.302Z,96720.09
2022-12-12T01:25:27.568Z,96724.22
2022-12-12T01:26:31.747Z,96724.22
2022-12-12T01:27:37.672Z,96696.97
2022-12-12T01:28:42.809Z,96726.03
2022-12-12T01:29:48.592Z,96725.91
2022-12-12T01:30:54.607Z,96726.63
2022-12-12T01:32:01.343Z,96718.00
2022-12-12T01:33:04.851Z,96715.50
2022-12-12T01:34:11.309Z,96717.78
2022-12-12T01:35:15.262Z,96714.25
2022-12-12T01:36:25.434Z,96701.34
2022-12-12T01:37:29.611Z,96707.16
2022-12-12T01:38:35.701Z,96717.28
2022-12-12T01:39:38.948Z,96716.34
2022-12-12T01:40:45.256Z,96716.78
2022-12-12T01:41:48.615Z,96708.53
2022-12-12T01:42:56.700Z,96710.69
2022-12-12T01:44:06.828Z,96699.72
2022-12-12T01:46:09.235Z,96704.03
2022-12-12T01:47:21.862Z,96705.94
2022-12-12T01:48:34.513Z,96701.19
2022-12-12T01:49:40.720Z,96706.75
2022-12-12T01:50:45.974Z,96709.19
2022-12-12T01:51:58.708Z,96708.53
2022-12-12T01:53:02.154Z,96708.69
2022-12-12T01:54:19.003Z,96710.69
2022-12-12T01:55:28.619Z,96710.69
2022-12-12T01:56:35.066Z,96701.09
2022-12-12T01:57:50.102Z,96696.97
2022-12-12T01:58:56.894Z,96700.41
2022-12-12T02:00:10.397Z,96700.63
2022-12-12T02:01:17.008Z,96698.19
2022-12-12T02:02:25.602Z,96699.81
2022-12-12T02:03:29.448Z,96693.44
2022-12-12T02:04:36.062Z,96692.63
2022-12-12T02:05:48.381Z,96703.47
2022-12-12T02:06:55.991Z,96691.41
2022-12-12T02:08:03.868Z,96697.69
2022-12-12T02:09:15.492Z,96691.19
2022-12-12T02:10:19.022Z,96706.47
2022-12-12T02:11:25.931Z,96696.75
2022-12-12T02:12:29.372Z,96702.22
2022-12-12T02:13:38.797Z,96697.72
2022-12-12T02:14:51.331Z,96702.09
2022-12-12T02:16:10.377Z,96699.63
2022-12-12T02:18:12.397Z,96703.13
2022-12-12T02:20:03.515Z,96701.09
2022-12-12T02:21:24.552Z,96694.81
2022-12-12T02:23:16.946Z,96695.09
2022-12-12T02:25:12.630Z,96697.56
2022-12-12T02:27:13.019Z,96695.34
2022-12-12T02:29:10.943Z,96696.84
2022-12-12T02:30:24.673Z,96694.41
2022-12-12T02:31:41.078Z,96702.91
2022-12-12T02:33:13.593Z,96691.34
2022-12-12T02:34:40.116Z,96696.16
2022-12-12T02:36:15.968Z,96694.50
2022-12-12T02:37:33.326Z,96690.84
2022-12-12T02:38:56.164Z,96691.81
2022-12-12T02:40:21.242Z,96697.47
2022-12-12T02:41:39.490Z,96690.53
2022-12-12T02:42:53.299Z,96694.41
2022-12-12T02:44:17.618Z,96689.56
2022-12-12T02:45:36.579Z,96698.63
2022-12-12T02:46:59.376Z,96693.19
2022-12-12T02:48:17.259Z,96692.38
2022-12-12T02:49:34.541Z,96695.09
2022-12-12T02:50:44.007Z,96688.09
2022-12-12T02:51:54.642Z,96688.59
2022-12-12T02:53:00.529Z,96699.97
2022-12-12T02:54:16.182Z,96691.47
2022-12-12T02:55:21.568Z,96692.28
2022-12-12T02:56:53.271Z,96690.03
2022-12-12T02:57:56.865Z,96695.09
2022-12-12T02:59:02.823Z,96689.16
2022-12-12T03:00:13.755Z,96689.88
2022-12-12T03:01:45.017Z,96685.03
2022-12-12T03:03:43.859Z,96690.38
2022-12-12T03:05:28.878Z,96687.78
2022-12-12T03:07:13.383Z,96690.03
2022-12-12T03:08:45.088Z,96694.38
2022-12-12T03:10:06.060Z,96688.09
2022-12-12T03:11:21.744Z,96696.75
2022-12-12T03:12:43.207Z,96690.03
2022-12-12T03:13:58.080Z,96695.91
2022-12-12T03:15:17.152Z,96693.19
2022-12-12T03:16:29.837Z,96698.84
2022-12-12T03:17:49.269Z,96684.22
2022-12-12T03:19:09.279Z,96686.91
2022-12-12T03:20:25.606Z,96692.94
2022-12-12T03:21:44.555Z,96691.78
2022-12-12T03:23:00.201Z,96697.47
2022-12-12T03:24:14.216Z,96691.47
2022-12-12T03:25:29.908Z,96703.25
2022-12-12T03:26:50.490Z,96703.50
2022-12-12T03:28:06.636Z,96705.16
2022-12-12T03:29:20.861Z,96705.63
2022-12-12T03:30:25.142Z,96700.28
2022-12-12T03:31:37.913Z,96696.59
2022-12-12T03:32:56.095Z,96705.13
2022-12-12T03:34:10.228Z,96698.13
2022-12-12T03:35:28.579Z,96689.63
2022-12-12T03:36:41.134Z,96694.16
2022-12-12T03:37:54.788Z,96675.75
2022-12-12T03:39:11.925Z,96699.09
2022-12-12T03:40:25.533Z,96691.47
2022-12-12T03:41:43.263Z,96690.13
2022-12-12T03:42:58.012Z,96695.78
2022-12-12T03:44:15.153Z,96694.16
2022-12-12T03:45:30.749Z,96697.56
2022-12-12T03:46:49.449Z,96697.69
2022-12-12T03:48:04.585Z,96697.44
2022-12-12T03:49:23.300Z,96703.34
2022-12-12T03:50:37.261Z,96696.97
2022-12-12T03:51:53.160Z,96703.13
2022-12-12T03:53:07.442Z,96695.69
2022-12-12T03:54:27.004Z,96677.19
2022-12-12T03:55:44.276Z,96698.19
2022-12-12T03:57:00.332Z,96681.63
2022-12-12T03:58:14.164Z,96696.25
2022-12-12T03:59:29.391Z,96695.75
2022-12-12T04:00:40.189Z,96692.69
2022-12-12T04:02:00.829Z,96688.34
2022-12-12T04:03:19.020Z,96693.44
2022-12-12T04:04:39.800Z,96688.00
2022-12-12T04:06:14.138Z,96695.19
2022-12-12T04:07:31.047Z,96704.00
2022-12-12T04:08:36.057Z,96697.88
2022-12-12T04:09:55.613Z,96690.47
2022-12-12T04:11:26.344Z,96698.38
2022-12-12T04:12:56.773Z,96694.16
2022-12-12T04:14:24.256Z,96691.91
2022-12-12T04:16:00.418Z,96696.03
2022-12-12T04:17:09.287Z,96698.84
2022-12-12T04:18:28.062Z,96694.59
2022-12-12T04:19:58.061Z,96696.59
2022-12-12T04:21:35.460Z,96696.50
2022-12-12T04:23:13.273Z,96695.69
2022-12-12T04:24:33.526Z,96670.31
2022-12-12T04:26:09.807Z,96692.38
2022-12-12T04:27:28.711Z,96689.25
2022-12-12T04:28:36.919Z,96696.25
2022-12-12T04:29:56.724Z,96685.38
2022-12-12T04:31:06.859Z,96689.88
2022-12-12T04:32:25.675Z,96690.69
2022-12-12T04:33:42.375Z,96699.09
2022-12-12T04:35:01.765Z,96695.44
2022-12-12T04:36:10.561Z,96694.50
2022-12-12T04:37:25.801Z,96669.25
2022-12-12T04:38:31.142Z,96693.19
2022-12-12T04:39:46.402Z,96687.16
2022-12-12T04:40:59.459Z,96686.41
2022-12-12T04:42:13.612Z,96690.78
2022-12-12T04:43:23.016Z,96692.47
2022-12-12T04:44:36.284Z,96691.78
2022-12-12T04:45:45.518Z,96695.69
2022-12-12T04:46:59.617Z,96692.44
2022-12-12T04:48:09.225Z,96683.69
2022-12-12T04:49:22.571Z,96680.13
2022-12-12T04:50:35.112Z,96690.53
2022-12-12T04:51:49.001Z,96685.09
2022-12-12T04:53:01.226Z,96687.47
2022-12-12T04:54:21.607Z,96695.44
2022-12-12T04:55:34.468Z,96690.28
2022-12-12T04:56:46.891Z,96691.00
2022-12-12T04:57:57.747Z,96689.22
2022-12-12T04:59:05.958Z,96682.63
2022-12-12T05:00:17.443Z,96685.94
2022-12-12T05:01:39.653Z,96697.16
2022-12-12T05:02:58.921Z,96694.19
2022-12-12T05:04:14.126Z,96693.59
2022-12-12T05:05:35.211Z,96696.69
2022-12-12T05:06:46.662Z,96691.69
2022-12-12T05:08:01.046Z,96690.75
2022-12-12T05:09:07.040Z,96690.50
2022-12-12T05:10:19.967Z,96696.78
2022-12-12T05:11:23.853Z,96696.53
2022-12-12T05:12:30.254Z,96695.25
2022-12-12T05:13:36.997Z,96698.31
2022-12-12T05:14:44.000Z,96692.97
2022-12-12T05:15:53.497Z,96691.34
2022-12-12T05:17:09.722Z,96697.00
2022-12-12T05:18:13.639Z,96693.53
2022-12-12T05:19:19.516Z,96692.84
2022-12-12T05:20:23.647Z,96684.34
2022-12-12T05:21:33.069Z,96687.47
2022-12-12T05:22:36.332Z,96690.25
2022-12-12T05:23:42.336Z,96679.41
2022-12-12T05:24:45.659Z,96694.75
2022-12-12T05:25:52.532Z,96689.81
2022-12-12T05:26:55.966Z,96692.84
2022-12-12T05:28:02.273Z,96686.69
2022-12-12T05:29:08.626Z,96690.94
2022-12-12T05:30:16.173Z,96697.56
2022-12-12T05:31:20.654Z,96685.16
2022-12-12T05:32:26.527Z,96691.78
2022-12-12T05:33:29.764Z,96677.25
2022-12-12T05:34:35.795Z,96695.47
2022-12-12T05:35:40.577Z,96691.91
2022-12-12T05:36:50.050Z,96688.78
2022-12-12T05:37:53.563Z,96692.34
2022-12-12T05:38:59.540Z,96692.34
2022-12-12T05:40:04.895Z,96689.19
2022-12-12T05:41:12.355Z,96697.09
2022-12-12T05:42:19.146Z,96699.19
2022-12-12T05:43:22.386Z,96703.13
2022-12-12T05:44:28.413Z,96701.34
2022-12-12T05:45:31.733Z,96698.31
2022-12-12T05:46:37.664Z,96704.44
2022-12-12T05:47:44.567Z,96698.31
2022-12-12T05:48:50.810Z,96700.22
2022-12-12T05:49:57.864Z,96702.41
2022-12-12T05:51:03.017Z,96698.63
2022-12-12T05:52:11.597Z,96685.69
2022-12-12T05:53:16.158Z,96697.22
2022-12-12T05:54:22.553Z,96697.09
2022-12-12T05:55:27.472Z,96680.84
2022-12-12T05:56:33.361Z,96702.56
2022-12-12T05:57:36.861Z,96705.16
2022-12-12T05:58:45.214Z,96712.44
2022-12-12T05:59:49.233Z,96707.97
2022-12-12T06:01:01.638Z,96691.81
2022-12-12T06:02:12.076Z,96705.00
2022-12-12T06:03:17.162Z,96701.47
2022-12-12T06:04:25.342Z,96709.84
2022-12-12T06:05:29.423Z,96706.16
2022-12-12T06:06:35.347Z,96709.59
2022-12-12T06:07:42.276Z,96718.09
2022-12-12T06:08:48.217Z,96711.53
2022-12-12T06:09:52.557Z,96711.75
2022-12-12T06:10:58.633Z,96710.09
2022-12-12T06:12:02.024Z,96708.91
2022-12-12T06:13:08.375Z,96717.91
2022-12-12T06:14:14.344Z,96713.28
2022-12-12T06:15:19.157Z,96720.84
2022-12-12T06:16:25.181Z,96718.09
2022-12-12T06:17:33.154Z,96718.69
2022-12-12T06:18:40.664Z,96716.53
2022-12-12T06:19:44.932Z,96722.56
2022-12-12T06:20:53.434Z,96703.00
2022-12-12T06:21:57.134Z,96722.94
2022-12-12T06:23:05.905Z,96725.66
2022-12-12T06:24:12.677Z,96730.50
2022-12-12T06:25:16.211Z,96723.44
2022-12-12T06:26:25.226Z,96727.69
2022-12-12T06:27:29.126Z,96731.56
2022-12-12T06:28:36.332Z,96727.44
2022-12-12T06:29:39.898Z,96732.38
2022-12-12T06:30:46.074Z,96728.13
2022-12-12T06:31:53.561Z,96725.09
2022-12-12T06:33:00.529Z,96736.19
2022-12-12T06:34:07.147Z,96736.19
2022-12-12T06:35:12.834Z,96740.81
2022-12-12T06:36:25.749Z,96738.22
2022-12-12T06:37:32.782Z,96738.53
2022-12-12T06:38:42.943Z,96738.91
2022-12-12T06:39:47.285Z,96734.53
2022-12-12T06:40:53.238Z,96732.97
2022-12-12T06:41:59.740Z,96737.66
2022-12-12T06:43:06.573Z,96733.88
2022-12-12T06:44:10.135Z,96735.25
2022-12-12T06:45:16.335Z,96740.47
2022-12-12T06:46:26.982Z,96733.88
2022-12-12T06:47:30.424Z,96728.09
2022-12-12T06:48:39.178Z,96726.34
2022-12-12T06:49:45.265Z,96741.34
2022-12-12T06:50:48.720Z,96736.25
2022-12-12T06:51:54.759Z,96730.38
2022-12-12T06:53:00.639Z,96732.72
2022-12-12T06:54:10.779Z,96743.00
2022-12-12T06:55:14.563Z,96735.31
2022-12-12T06:56:26.103Z,96743.94
2022-12-12T06:57:33.033Z,96742.69
2022-12-12T06:58:40.084Z,96745.47
2022-12-12T06:59:48.307Z,96745.22
2022-12-12T07:00:54.255Z,96743.19
2022-12-12T07:02:02.647Z,96748.28
2022-12-12T07:03:09.188Z,96750.34
2022-12-12T07:04:16.828Z,96729.97
2022-12-12T07:05:24.807Z,96754.28
2022-12-12T07:06:28.291Z,96755.97
2022-12-12T07:07:34.553Z,96754.19
2022-12-12T07:08:39.252Z,96736.47
2022-12-12T07:09:48.301Z,96750.63
2022-12-12T07:10:52.697Z,96752.84
2022-12-12T07:11:59.072Z,96749.09
2022-12-12T07:13:02.368Z,96750.63
2022-12-12T07:14:08.957Z,96754.75
2022-12-12T07:15:15.583Z,96753.56
2022-12-12T07:16:23.752Z,96752.28
2022-12-12T07:17:29.854Z,96755.72
2022-12-12T07:18:36.223Z,96758.94
2022-12-12T07:19:42.277Z,96757.72
2022-12-12T07:20:47.245Z,96753.38
2022-12-12T07:21:53.910Z,96760.78
2022-12-12T07:22:57.592Z,96764.63
2022-12-12T07:24:03.590Z,96761.38
2022-12-12T07:25:12.801Z,96759.69
2022-12-12T07:26:19.817Z,96759.44
2022-12-12T07:27:26.680Z,96760.84
2022-12-12T07:28:30.134Z,96761.41
2022-12-12T07:29:36.341Z,96760.34
2022-12-12T07:30:43.967Z,96759.78
2022-12-12T07:31:47.677Z,96749.44
2022-12-12T07:32:54.884Z,96765.97
2022-12-12T07:33:58.880Z,96757.50
2022-12-12T07:35:05.016Z,96764.41
2022-12-12T07:36:09.090Z,96764.28
2022-12-12T07:37:15.172Z,96761.94
2022-12-12T07:38:19.406Z,96765.09
2022-12-12T07:39:25.352Z,96770.88
2022-12-12T07:40:36.002Z,96764.97
2022-12-12T07:41:42.036Z,96756.91
2022-12-12T07:42:45.455Z,96757.63
2022-12-12T07:43:53.438Z,96765.06
2022-12-12T07:44:59.544Z,96764.72
2022-12-12T07:46:03.015Z,96762.19
2022-12-12T07:47:10.707Z,96766.75
2022-12-12T07:48:15.404Z,96769.22
2022-12-12T07:49:22.108Z,96762.00
2022-12-12T07:50:26.177Z,96763.38
2022-12-12T07:51:33.304Z,96761.41
2022-12-12T07:52:36.784Z,96756.09
2022-12-12T07:53:43.221Z,96760.34
2022-12-12T07:54:50.121Z,96760.47
2022-12-12T07:55:56.891Z,96761.03
2022-12-12T07:57:03.205Z,96759.00
2022-12-12T07:58:06.805Z,96763.00
2022-12-12T07:59:12.847Z,96757.53
2022-12-12T08:00:19.907Z,96759.88
2022-12-12T08:01:30.470Z,96759.56
2022-12-12T08:02:34.066Z,96762.75
2022-12-12T08:03:40.170Z,96760.69
2022-12-12T08:04:46.297Z,96772.91
2022-12-12T08:05:50.613Z,96763.88
2022-12-12T08:07:02.720Z,96769.72
2022-12-12T08:08:09.540Z,96759.56
2022-12-12T08:09:15.473Z,96766.56
2022-12-12T08:10:19.050Z,96756.97
2022-12-12T08:11:29.622Z,96764.53
2022-12-12T08:12:33.723Z,96769.28
2022-12-12T08:13:43.119Z,96769.09
2022-12-12T08:14:49.281Z,96769.09
2022-12-12T08:15:55.239Z,96774.06
2022-12-12T08:17:03.211Z,96766.31
2022-12-12T08:18:06.607Z,96773.84
2022-12-12T08:19:12.554Z,96776.53
2022-12-12T08:20:19.916Z,96772.69
2022-12-12T08:21:27.387Z,96768.31
2022-12-12T08:22:31.557Z,96778.22
2022-12-12T08:23:37.550Z,96777.63
2022-12-12T08:24:43.950Z,96782.19
2022-12-12T08:25:47.380Z,96779.56
2022-12-12T08:26:56.109Z,96773.25
2022-12-12T08:28:02.923Z,96770.78
2022-12-12T08:29:09.224Z,96772.56
2022-12-12T08:30:16.591Z,96774.34
2022-12-12T08:31:25.150Z,96778.88
2022-12-12T08:32:31.287Z,96777.84
2022-12-12T08:33:39.245Z,96773.59
2022-12-12T08:34:45.148Z,96778.06
2022-12-12T08:35:51.102Z,96775.72
2022-12-12T08:36:57.177Z,96778.66
2022-12-12T08:38:04.063Z,96773.19
2022-12-12T08:39:16.185Z,96771.78
2022-12-12T08:40:22.223Z,96766.28
2022-12-12T08:41:28.554Z,96782.78
2022-12-12T08:42:37.059Z,96774.69
2022-12-12T08:43:45.759Z,96770.59
2022-12-12T08:44:53.300Z,96773.91
2022-12-12T08:46:03.939Z,96766.75
2022-12-12T08:47:10.898Z,96771.94
2022-12-12T08:48:14.335Z,96775.25
2022-12-12T08:49:20.297Z,96779.13
2022-12-12T08:50:29.848Z,96780.25
2022-12-12T08:51:36.159Z,96778.34
2022-12-12T08:52:42.397Z,96785.31
2022-12-12T08:53:49.378Z,96780.63
2022-12-12T08:54:52.822Z,96784.59
2022-12-12T08:55:59.719Z,96786.22
2022-12-12T08:57:05.814Z,96782.44
2022-12-12T08:58:14.294Z,96785.19
2022-12-12T08:59:22.137Z,96778.03
2022-12-12T09:00:28.092Z,96776.94
2022-12-12T09:01:35.322Z,96782.72
2022-12-12T09:02:41.614Z,96778.47
2022-12-12T09:03:48.333Z,96784.06
2022-12-12T09:04:54.210Z,96781.06
2022-12-12T09:06:00.624Z,96781.22
2022-12-12T09:07:08.934Z,96789.09
2022-12-12T09:08:15.854Z,96786.66
2022-12-12T09:09:21.966Z,96784.47
2022-12-12T09:10:28.549Z,96786.09
2022-12-12T09:11:34.457Z,96787.03
2022-12-12T09:12:42.042Z,96786.66
2022-12-12T09:13:50.992Z,96784.75
2022-12-12T09:14:56.896Z,96788.44
2022-12-12T09:16:00.373Z,96790.78
2022-12-12T09:17:06.876Z,96789.97
2022-12-12T09:18:13.654Z,96793.22
2022-12-12T09:19:20.327Z,96790.81
2022-12-12T09:20:26.310Z,96796.47
2022-12-12T09:21:29.837Z,96796.28
2022-12-12T09:22:35.799Z,96797.94
2022-12-12T09:23:42.782Z,96791.47
2022-12-12T09:24:49.410Z,96798.38
2022-12-12T09:25:54.260Z,96789.44
2022-12-12T09:27:00.297Z,96798.63
2022-12-12T09:28:06.408Z,96794.09
2022-12-12T09:29:16.696Z,96785.75
2022-12-12T09:30:23.068Z,96790.00
2022-12-12T09:31:29.606Z,96791.78
2022-12-12T09:32:35.580Z,96789.72
2022-12-12T09:33:43.488Z,96793.03
2022-12-12T09:34:50.360Z,96787.13
2022-12-12T09:35:59.995Z,96786.69
2022-12-12T09:37:06.143Z,96781.63
2022-12-12T09:38:14.968Z,96784.19
2022-12-12T09:39:21.947Z,96784.16
2022-12-12T09:40:39.249Z,96783.63
2022-12-12T09:41:45.249Z,96784.47
2022-12-12T09:42:54.924Z,96775.66
2022-12-12T09:44:06.780Z,96775.13
2022-12-12T09:45:15.991Z,96778.44
2022-12-12T09:46:37.817Z,96778.44
2022-12-12T09:47:50.697Z,96777.06
2022-12-12T09:49:14.195Z,96785.41
2022-12-12T09:50:32.628Z,96775.94
2022-12-12T09:51:38.067Z,96777.47
2022-12-12T09:52:45.552Z,96778.72
2022-12-12T09:53:51.809Z,96775.97
2022-12-12T09:54:58.203Z,96785.88
2022-12-12T09:56:16.882Z,96776.25
2022-12-12T09:57:36.512Z,96778.72
2022-12-12T09:58:57.223Z,96783.94
2022-12-12T10:00:14.174Z,96783.34
2022-12-12T10:01:34.664Z,96789.25
2022-12-12T10:03:07.046Z,96778.97
2022-12-12T10:04:35.161Z,96788.47
2022-12-12T10:06:13.516Z,96789.22
2022-12-12T10:07:30.448Z,96783.41
2022-12-12T10:08:51.045Z,96790.28
2022-12-12T10:10:16.090Z,96789.72
2022-12-12T10:11:44.091Z,96787.13
2022-12-12T10:12:53.188Z,96793.88
2022-12-12T10:14:08.110Z,96795.94
2022-12-12T10:15:32.834Z,96791.53
2022-12-12T10:16:44.599Z,96793.59
2022-12-12T10:17:52.668Z,96788.50
2022-12-12T10:19:12.200Z,96788.94
2022-12-12T10:20:25.112Z,96792.22
2022-12-12T10:21:37.655Z,96788.94
2022-12-12T10:22:56.688Z,96797.84
2022-12-12T10:24:22.327Z,96787.22
2022-12-12T10:25:44.192Z,96785.84
2022-12-12T10:26:47.672Z,96790.53
2022-12-12T10:27:59.251Z,96786.00
2022-12-12T10:29:15.594Z,96786.09
2022-12-12T10:30:24.296Z,96784.50
2022-12-12T10:31:51.376Z,96783.09
2022-12-12T10:33:22.063Z,96785.31
2022-12-12T10:34:55.273Z,96792.06
2022-12-12T10:36:20.759Z,96786.19
2022-12-12T10:37:47.325Z,96781.47
2022-12-12T10:39:17.326Z,96789.44
2022-12-12T10:40:52.167Z,96768.00
2022-12-12T10:42:12.643Z,96780.13
2022-12-12T10:43:26.762Z,96792.06
2022-12-12T10:45:05.610Z,96782.72
2022-12-12T10:46:31.354Z,96783.41
2022-12-12T10:47:40.320Z,96783.44
2022-12-12T10:48:47.633Z,96783.44
2022-12-12T10:50:10.051Z,96780.53
2022-12-12T10:51:26.046Z,96777.09
2022-12-12T10:52:31.919Z,96780.09
2022-12-12T10:53:38.928Z,96785.09
2022-12-12T10:54:51.335Z,96778.03
2022-12-12T10:56:03.793Z,96788.09
2022-12-12T10:57:20.054Z,96779.84
2022-12-12T10:58:27.916Z,96780.09
2022-12-12T10:59:33.867Z,96779.88
2022-12-12T11:00:44.243Z,96783.00
2022-12-12T11:02:11.117Z,96785.50
2022-12-12T11:03:32.063Z,96788.94
2022-12-12T11:04:40.249Z,96779.03
2022-12-12T11:05:46.273Z,96787.00
2022-12-12T11:06:56.529Z,96783.72
2022-12-12T11:08:08.374Z,96785.34
2022-12-12T11:09:23.529Z,96787.53
2022-12-12T11:10:34.750Z,96783.25
2022-12-12T11:11:40.876Z,96780.78
2022-12-12T11:12:44.143Z,96781.31
2022-12-12T11:13:56.851Z,96781.19
2022-12-12T11:15:13.897Z,96784.00
2022-12-12T11:16:26.211Z,96771.63
2022-12-12T11:17:34.270Z,96774.47
2022-12-12T11:18:42.919Z,96770.22
2022-12-12T11:19:49.644Z,96767.59
2022-12-12T11:21:12.572Z,96773.38
2022-12-12T11:22:19.517Z,96779.97
2022-12-12T11:23:31.935Z,96771.75
2022-12-12T11:24:45.534Z,96776.41
2022-12-12T11:26:01.051Z,96756.22
2022-12-12T11:27:10.840Z,96776.56
2022-12-12T11:28:28.720Z,96775.34
2022-12-12T11:29:49.373Z,96778.06
2022-12-12T11:30:59.672Z,96760.06
2022-12-12T11:32:08.322Z,96770.94
2022-12-12T11:33:26.301Z,96774.22
2022-12-12T11:34:41.998Z,96769.72
2022-12-12T11:35:49.570Z,96773.84
2022-12-12T11:36:58.432Z,96773.84
2022-12-12T11:38:10.728Z,96776.84
2022-12-12T11:39:27.372Z,96778.38
2022-12-12T11:40:37.781Z,96773.16
2022-12-12T11:42:04.660Z,96770.81
2022-12-12T11:43:32.422Z,96770.41
2022-12-12T11:44:42.001Z,96780.28
2022-12-12T11:46:05.657Z,96767.53
2022-12-12T11:47:28.651Z,96775.06
2022-12-12T11:48:59.865Z,96779.88
2022-12-12T11:50:23.661Z,96779.84
2022-12-12T11:51:40.409Z,96780.56
2022-12-12T11:52:43.991Z,96775.22
2022-12-12T11:53:50.044Z,96773.66
2022-12-12T11:54:57.725Z,96783.13
2022-12-12T11:56:32.624Z,96782.59
2022-12-12T11:58:09.375Z,96776.25
2022-12-12T12:00:00.369Z,96780.25
2022-12-12T12:01:20.477Z,96787.25
2022-12-12T12:03:07.470Z,96787.81
2022-12-12T12:04:42.241Z,96786.84
2022-12-12T12:06:16.490Z,96792.47
2022-12-12T12:07:51.470Z,96784.13
2022-12-12T12:09:22.045Z,96787.00
2022-12-12T12:10:53.899Z,96793.31
2022-12-12T12:12:13.265Z,96798.38
2022-12-12T12:13:45.103Z,96790.81
2022-12-12T12:15:21.894Z,96796.47
2022-12-12T12:16:48.788Z,96793.44
2022-12-12T12:18:34.613Z,96796.88
2022-12-12T12:19:59.383Z,96788.50
2022-12-12T12:21:31.709Z,96795.94
2022-12-12T12:22:59.308Z,96801.28
2022-12-12T12:24:58.079Z,96791.66
2022-12-12T12:26:16.335Z,96799.38
2022-12-12T12:27:39.753Z,96788.94
2022-12-12T12:29:40.031Z,96797.28
2022-12-12T12:31:03.441Z,96798.25
2022-12-12T12:32:28.956Z,96804.31
2022-12-12T12:34:04.833Z,96796.22
2022-12-12T12:35:33.011Z,96785.50
2022-12-12T12:37:05.034Z,96795.94
2022-12-12T12:38:29.548Z,96796.22
2022-12-12T12:40:10.620Z,96802.25
2022-12-12T12:41:43.027Z,96796.22
2022-12-12T12:43:23.747Z,96803.38
2022-12-12T12:44:47.281Z,96801.59
2022-12-12T12:46:04.114Z,96805.44
2022-12-12T12:47:29.679Z,96807.34
2022-12-12T12:48:44.094Z,96792.34
2022-12-12T12:50:02.188Z,96796.75
2022-12-12T12:51:21.809Z,96802.66
2022-12-12T12:52:41.902Z,96807.47
2022-12-12T12:53:58.078Z,96812.56
2022-12-12T12:55:05.908Z,96806.25
2022-12-12T12:56:26.878Z,96803.34
2022-12-12T12:57:42.136Z,96803.63
2022-12-12T12:58:53.089Z,96805.53
2022-12-12T13:00:07.023Z,96809.25
2022-12-12T13:01:24.205Z,96813.25
2022-12-12T13:02:44.195Z,96806.09
2022-12-12T13:04:04.353Z,96814.75
2022-12-12T13:05:22.364Z,96813.34
2022-12-12T13:06:50.681Z,96813.22
2022-12-12T13:08:16.628Z,96819.66
2022-12-12T13:09:37.205Z,96808.94
2022-12-12T13:10:52.558Z,96821.44
2022-12-12T13:12:13.444Z,96823.13
2022-12-12T13:13:30.801Z,96829.00
2022-12-12T13:14:48.565Z,96813.94
2022-12-12T13:16:04.846Z,96820.38
2022-12-12T13:17:33.961Z,96823.78
2022-12-12T13:18:46.109Z,96814.72
2022-12-12T13:19:59.003Z,96812.25
2022-12-12T13:21:18.667Z,96819.81
2022-12-12T13:22:43.807Z,96815.28
2022-12-12T13:24:05.050Z,96821.06
2022-12-12T13:25:24.843Z,96821.59
2022-12-12T13:26:47.227Z,96817.75
2022-12-12T13:27:58.874Z,96819.94
2022-12-12T13:29:31.035Z,96819.28
2022-12-12T13:31:01.768Z,96829.00
2022-12-12T13:32:45.846Z,96823.09
2022-12-12T13:34:04.524Z,96829.50
2022-12-12T13:35:18.294Z,96821.84
2022-12-12T13:36:30.421Z,96830.09
2022-12-12T13:37:47.899Z,96826.41
2022-12-12T13:39:03.585Z,96826.94
2022-12-12T13:40:25.869Z,96834.88
2022-12-12T13:42:01.487Z,96842.47
2022-12-12T13:43:10.548Z,96837.09
2022-12-12T13:44:50.821Z,96843.81
2022-12-12T13:45:54.742Z,96845.47
2022-12-12T13:47:00.927Z,96845.47
2022-12-12T13:48:07.386Z,96848.63
2022-12-12T13:49:31.575Z,96847.00
2022-12-12T13:50:38.532Z,96850.69
2022-12-12T13:51:44.507Z,96833.06
2022-12-12T13:53:23.197Z,96849.44
2022-12-12T13:55:22.175Z,96850.69
2022-12-12T13:56:39.389Z,96852.06
2022-12-12T13:58:34.988Z,96859.06
2022-12-12T14:00:32.234Z,96862.75
2022-12-12T14:01:41.020Z,96855.09
2022-12-12T14:03:09.238Z,96853.72
2022-12-12T14:04:32.119Z,96863.75
2022-12-12T14:05:43.623Z,96861.81
2022-12-12T14:07:05.277Z,96861.13
2022-12-12T14:08:30.760Z,96859.47
2022-12-12T14:09:50.092Z,96858.94
2022-12-12T14:11:05.296Z,96868.28
2022-12-12T14:12:27.506Z,96861.41
2022-12-12T14:13:47.586Z,96876.81
2022-12-12T14:15:03.808Z,96869.94
2022-12-12T14:16:24.937Z,96872.69
2022-12-12T14:17:42.094Z,96857.09
2022-12-12T14:19:06.781Z,96880.47